Aviation Digital Data Service (ADDS)

Output produced by METARs form (1912 UTC 30 July 2014)
found at http://www.aviationweather.gov/adds/metars/
 
KDOV 301755Z VRB06KT 10SM FEW055 25/13 A3004 RMK AO2 SLP174 T02450131 10255 20177 58008
TAF KDOV 3016/3122 28009KT 9999 FEW060 QNH3005INS 
     BECMG 3105/3106 20006KT 9999 SCT025 BKN080 QNH3008INS 
     BECMG 3114/3115 21012KT 9999 BKN035 QNH3010INS TX28/3121Z TN18/3109Z